sensor_id;sensor_type;location;lat;lon;timestamp;pressure;altitude;pressure_sealevel;temperature;humidity
53041;BME280;39326;42.650;23.248;2024-01-16T00:01:37;91022.25;;;0.49;76.44
53041;BME280;39326;42.650;23.248;2024-01-16T00:04:03;91027.94;;;0.55;76.02
53041;BME280;39326;42.650;23.248;2024-01-16T00:06:29;91047.00;;;0.52;77.12
53041;BME280;39326;42.650;23.248;2024-01-16T00:08:54;91030.19;;;0.56;77.37
53041;BME280;39326;42.650;23.248;2024-01-16T00:11:20;91035.25;;;0.72;76.79
53041;BME280;39326;42.650;23.248;2024-01-16T00:13:45;91022.31;;;0.53;77.84
53041;BME280;39326;42.650;23.248;2024-01-16T00:16:11;91028.78;;;0.62;78.37
53041;BME280;39326;42.650;23.248;2024-01-16T00:18:37;91049.72;;;0.59;77.76
53041;BME280;39326;42.650;23.248;2024-01-16T00:21:02;91060.31;;;0.70;77.23
53041;BME280;39326;42.650;23.248;2024-01-16T00:23:28;91061.56;;;0.79;75.61
53041;BME280;39326;42.650;23.248;2024-01-16T00:25:54;91060.06;;;0.78;75.98
53041;BME280;39326;42.650;23.248;2024-01-16T00:28:19;91037.97;;;0.83;76.13
53041;BME280;39326;42.650;23.248;2024-01-16T00:30:45;91064.19;;;0.79;75.31
53041;BME280;39326;42.650;23.248;2024-01-16T00:33:10;91070.34;;;0.94;75.83
53041;BME280;39326;42.650;23.248;2024-01-16T00:35:37;91044.34;;;0.82;76.02
53041;BME280;39326;42.650;23.248;2024-01-16T00:38:03;91060.63;;;0.64;76.88
53041;BME280;39326;42.650;23.248;2024-01-16T00:40:29;91065.69;;;0.80;76.44
53041;BME280;39326;42.650;23.248;2024-01-16T00:42:54;91069.53;;;0.90;75.58
53041;BME280;39326;42.650;23.248;2024-01-16T00:45:20;91053.78;;;0.90;74.87
53041;BME280;39326;42.650;23.248;2024-01-16T00:47:46;91067.06;;;0.67;76.33
53041;BME280;39326;42.650;23.248;2024-01-16T00:50:12;91080.69;;;0.80;75.80
53041;BME280;39326;42.650;23.248;2024-01-16T00:52:38;91087.97;;;0.60;77.96
53041;BME280;39326;42.650;23.248;2024-01-16T00:55:04;91073.13;;;0.75;77.33
53041;BME280;39326;42.650;23.248;2024-01-16T00:57:30;91068.03;;;0.89;76.19
53041;BME280;39326;42.650;23.248;2024-01-16T00:59:55;91083.59;;;1.05;75.11
53041;BME280;39326;42.650;23.248;2024-01-16T01:02:21;91096.03;;;1.11;75.06
53041;BME280;39326;42.650;23.248;2024-01-16T01:04:47;91073.59;;;1.21;74.46
53041;BME280;39326;42.650;23.248;2024-01-16T01:07:15;91092.47;;;1.30;74.83
53041;BME280;39326;42.650;23.248;2024-01-16T01:09:41;91090.66;;;1.01;77.13
53041;BME280;39326;42.650;23.248;2024-01-16T01:12:07;91080.09;;;1.31;76.23
53041;BME280;39326;42.650;23.248;2024-01-16T01:14:33;91091.78;;;1.40;76.25
53041;BME280;39326;42.650;23.248;2024-01-16T01:16:59;91089.34;;;1.17;77.14
53041;BME280;39326;42.650;23.248;2024-01-16T01:19:24;91090.63;;;1.34;76.28
53041;BME280;39326;42.650;23.248;2024-01-16T01:21:50;91098.84;;;1.33;76.92
53041;BME280;39326;42.650;23.248;2024-01-16T01:24:15;91066.66;;;1.39;76.85
53041;BME280;39326;42.650;23.248;2024-01-16T01:26:43;91089.84;;;1.34;78.70
53041;BME280;39326;42.650;23.248;2024-01-16T01:29:09;91087.34;;;1.44;78.25
53041;BME280;39326;42.650;23.248;2024-01-16T01:31:35;91087.69;;;1.43;79.04
53041;BME280;39326;42.650;23.248;2024-01-16T01:34:01;91087.16;;;1.67;80.97
53041;BME280;39326;42.650;23.248;2024-01-16T01:36:26;91079.84;;;1.91;83.20
53041;BME280;39326;42.650;23.248;2024-01-16T01:38:53;91067.50;;;2.02;82.55
53041;BME280;39326;42.650;23.248;2024-01-16T01:41:18;91043.84;;;1.98;83.56
53041;BME280;39326;42.650;23.248;2024-01-16T01:43:44;91047.38;;;2.24;87.18
53041;BME280;39326;42.650;23.248;2024-01-16T01:46:17;91058.75;;;2.46;90.77
53041;BME280;39326;42.650;23.248;2024-01-16T01:48:46;91058.47;;;2.65;89.63
53041;BME280;39326;42.650;23.248;2024-01-16T01:51:13;91059.28;;;2.80;89.35
53041;BME280;39326;42.650;23.248;2024-01-16T01:53:42;91062.34;;;2.93;90.84
53041;BME280;39326;42.650;23.248;2024-01-16T01:56:13;91068.75;;;3.02;92.70
53041;BME280;39326;42.650;23.248;2024-01-16T01:58:40;91065.44;;;3.23;90.36
53041;BME280;39326;42.650;23.248;2024-01-16T02:01:08;91079.78;;;3.51;91.05
53041;BME280;39326;42.650;23.248;2024-01-16T02:03:42;91069.63;;;3.49;91.38
53041;BME280;39326;42.650;23.248;2024-01-16T02:06:10;91067.31;;;3.41;93.11
53041;BME280;39326;42.650;23.248;2024-01-16T02:08:36;91085.78;;;3.44;92.06
53041;BME280;39326;42.650;23.248;2024-01-16T02:11:02;91086.91;;;3.54;93.14
53041;BME280;39326;42.650;23.248;2024-01-16T02:13:28;91088.06;;;3.56;92.32
53041;BME280;39326;42.650;23.248;2024-01-16T02:15:53;91076.75;;;3.59;92.63
53041;BME280;39326;42.650;23.248;2024-01-16T02:18:19;91081.69;;;3.61;93.29
53041;BME280;39326;42.650;23.248;2024-01-16T02:20:45;91080.91;;;3.53;93.06
53041;BME280;39326;42.650;23.248;2024-01-16T02:23:13;91095.22;;;3.59;92.93
53041;BME280;39326;42.650;23.248;2024-01-16T02:25:41;91093.38;;;3.67;93.01
53041;BME280;39326;42.650;23.248;2024-01-16T02:28:07;91092.59;;;3.70;92.45
53041;BME280;39326;42.650;23.248;2024-01-16T02:30:33;91089.22;;;3.73;92.41
53041;BME280;39326;42.650;23.248;2024-01-16T02:32:59;91089.59;;;3.89;92.07
53041;BME280;39326;42.650;23.248;2024-01-16T02:35:25;91089.59;;;3.97;91.64
53041;BME280;39326;42.650;23.248;2024-01-16T02:37:50;91091.09;;;3.94;91.70
53041;BME280;39326;42.650;23.248;2024-01-16T02:40:16;91097.88;;;3.92;91.30
53041;BME280;39326;42.650;23.248;2024-01-16T02:42:42;91107.69;;;3.95;91.02
53041;BME280;39326;42.650;23.248;2024-01-16T02:45:08;91101.66;;;3.91;91.23
53041;BME280;39326;42.650;23.248;2024-01-16T02:47:34;91108.81;;;4.01;90.88
53041;BME280;39326;42.650;23.248;2024-01-16T02:50:00;91123.88;;;3.97;91.28
53041;BME280;39326;42.650;23.248;2024-01-16T02:52:25;91123.88;;;3.89;91.39
53041;BME280;39326;42.650;23.248;2024-01-16T02:54:51;91146.84;;;4.03;91.03
53041;BME280;39326;42.650;23.248;2024-01-16T02:57:17;91165.00;;;4.12;90.55
53041;BME280;39326;42.650;23.248;2024-01-16T02:59:45;91169.13;;;4.17;90.16
53041;BME280;39326;42.650;23.248;2024-01-16T03:02:11;91186.06;;;4.08;90.05
53041;BME280;39326;42.650;23.248;2024-01-16T03:04:37;91193.28;;;4.33;88.65
53041;BME280;39326;42.650;23.248;2024-01-16T03:07:03;91209.47;;;4.21;88.05
53041;BME280;39326;42.650;23.248;2024-01-16T03:09:28;91215.44;;;3.93;85.73
53041;BME280;39326;42.650;23.248;2024-01-16T03:11:55;91227.06;;;3.74;84.35
53041;BME280;39326;42.650;23.248;2024-01-16T03:14:20;91240.84;;;3.39;83.75
53041;BME280;39326;42.650;23.248;2024-01-16T03:16:46;91251.97;;;3.07;84.60
53041;BME280;39326;42.650;23.248;2024-01-16T03:19:12;91260.25;;;3.05;84.06
53041;BME280;39326;42.650;23.248;2024-01-16T03:21:38;91255.16;;;2.75;87.93
53041;BME280;39326;42.650;23.248;2024-01-16T03:24:05;91256.50;;;2.55;91.04
53041;BME280;39326;42.650;23.248;2024-01-16T03:26:31;91275.34;;;2.61;91.37
53041;BME280;39326;42.650;23.248;2024-01-16T03:28:57;91269.13;;;2.35;93.01
53041;BME280;39326;42.650;23.248;2024-01-16T03:31:23;91280.69;;;2.23;94.39
53041;BME280;39326;42.650;23.248;2024-01-16T03:33:49;91286.69;;;2.27;93.99
53041;BME280;39326;42.650;23.248;2024-01-16T03:36:15;91304.72;;;2.25;94.19
53041;BME280;39326;42.650;23.248;2024-01-16T03:38:44;91299.41;;;2.18;94.93
53041;BME280;39326;42.650;23.248;2024-01-16T03:41:13;91297.91;;;2.17;93.39
53041;BME280;39326;42.650;23.248;2024-01-16T03:43:40;91321.50;;;2.10;94.39
53041;BME280;39326;42.650;23.248;2024-01-16T03:46:05;91326.19;;;1.94;94.87
53041;BME280;39326;42.650;23.248;2024-01-16T03:48:31;91323.44;;;1.83;95.16
53041;BME280;39326;42.650;23.248;2024-01-16T03:50:57;91334.94;;;1.71;94.63
53041;BME280;39326;42.650;23.248;2024-01-16T03:53:23;91333.38;;;1.67;94.48
53041;BME280;39326;42.650;23.248;2024-01-16T03:55:48;91341.72;;;1.73;95.01
53041;BME280;39326;42.650;23.248;2024-01-16T03:58:15;91345.34;;;1.64;95.21
53041;BME280;39326;42.650;23.248;2024-01-16T04:00:41;91351.81;;;1.70;94.31
53041;BME280;39326;42.650;23.248;2024-01-16T04:03:06;91365.84;;;1.82;93.13
53041;BME280;39326;42.650;23.248;2024-01-16T04:05:33;91365.91;;;1.59;94.53
53041;BME280;39326;42.650;23.248;2024-01-16T04:07:58;91378.28;;;1.85;92.64
53041;BME280;39326;42.650;23.248;2024-01-16T04:10:24;91369.22;;;1.52;94.35
53041;BME280;39326;42.650;23.248;2024-01-16T04:12:49;91390.44;;;1.66;93.86
53041;BME280;39326;42.650;23.248;2024-01-16T04:15:15;91396.53;;;1.74;93.68
53041;BME280;39326;42.650;23.248;2024-01-16T04:17:41;91402.03;;;1.65;93.97
53041;BME280;39326;42.650;23.248;2024-01-16T04:20:07;91409.88;;;1.62;93.59
53041;BME280;39326;42.650;23.248;2024-01-16T04:22:33;91407.75;;;1.71;92.86
53041;BME280;39326;42.650;23.248;2024-01-16T04:24:58;91411.50;;;1.70;92.04
53041;BME280;39326;42.650;23.248;2024-01-16T04:27:24;91411.63;;;1.81;92.13
53041;BME280;39326;42.650;23.248;2024-01-16T04:29:51;91413.59;;;1.87;91.00
53041;BME280;39326;42.650;23.248;2024-01-16T04:32:16;91430.44;;;1.83;90.71
53041;BME280;39326;42.650;23.248;2024-01-16T04:34:42;91429.31;;;1.84;90.39
53041;BME280;39326;42.650;23.248;2024-01-16T04:37:08;91425.38;;;1.70;90.84
53041;BME280;39326;42.650;23.248;2024-01-16T04:39:33;91429.72;;;1.59;91.81
53041;BME280;39326;42.650;23.248;2024-01-16T04:41:59;91428.47;;;1.50;91.21
53041;BME280;39326;42.650;23.248;2024-01-16T04:44:24;91452.88;;;1.27;92.47
53041;BME280;39326;42.650;23.248;2024-01-16T04:46:50;91440.66;;;1.35;92.90
53041;BME280;39326;42.650;23.248;2024-01-16T04:49:16;91455.94;;;1.29;92.73
53041;BME280;39326;42.650;23.248;2024-01-16T04:51:41;91456.00;;;1.10;92.11
53041;BME280;39326;42.650;23.248;2024-01-16T04:54:07;91470.22;;;0.86;93.83
53041;BME280;39326;42.650;23.248;2024-01-16T04:56:33;91475.94;;;0.92;92.91
53041;BME280;39326;42.650;23.248;2024-01-16T04:58:58;91480.72;;;0.86;93.04
53041;BME280;39326;42.650;23.248;2024-01-16T05:01:24;91491.03;;;0.75;92.43
53041;BME280;39326;42.650;23.248;2024-01-16T05:03:50;91486.31;;;0.65;93.16
53041;BME280;39326;42.650;23.248;2024-01-16T05:06:16;91508.09;;;0.66;92.90
53041;BME280;39326;42.650;23.248;2024-01-16T05:08:42;91510.91;;;0.57;93.87
53041;BME280;39326;42.650;23.248;2024-01-16T05:11:09;91520.09;;;0.67;93.81
53041;BME280;39326;42.650;23.248;2024-01-16T05:13:34;91535.75;;;0.63;93.34
53041;BME280;39326;42.650;23.248;2024-01-16T05:16:00;91547.41;;;0.46;93.77
53041;BME280;39326;42.650;23.248;2024-01-16T05:18:26;91545.09;;;0.41;94.65
53041;BME280;39326;42.650;23.248;2024-01-16T05:20:51;91550.31;;;0.41;94.25
53041;BME280;39326;42.650;23.248;2024-01-16T05:23:17;91573.97;;;0.45;94.76
53041;BME280;39326;42.650;23.248;2024-01-16T05:25:43;91579.50;;;0.40;93.65
53041;BME280;39326;42.650;23.248;2024-01-16T05:28:09;91595.22;;;0.40;94.18
53041;BME280;39326;42.650;23.248;2024-01-16T05:30:34;91606.00;;;0.34;93.82
53041;BME280;39326;42.650;23.248;2024-01-16T05:33:00;91605.25;;;0.18;94.05
53041;BME280;39326;42.650;23.248;2024-01-16T05:35:28;91616.91;;;0.21;93.03
53041;BME280;39326;42.650;23.248;2024-01-16T05:37:54;91616.09;;;0.01;91.30
53041;BME280;39326;42.650;23.248;2024-01-16T05:40:21;91623.03;;;0.09;90.81
53041;BME280;39326;42.650;23.248;2024-01-16T05:42:48;91637.31;;;0.12;91.31
53041;BME280;39326;42.650;23.248;2024-01-16T05:45:15;91644.00;;;-0.07;90.61
53041;BME280;39326;42.650;23.248;2024-01-16T05:47:40;91658.03;;;0.01;91.30
53041;BME280;39326;42.650;23.248;2024-01-16T05:50:06;91647.47;;;-0.03;90.23
53041;BME280;39326;42.650;23.248;2024-01-16T05:52:32;91655.09;;;0.02;89.06
53041;BME280;39326;42.650;23.248;2024-01-16T05:54:57;91619.75;;;-0.04;87.44
53041;BME280;39326;42.650;23.248;2024-01-16T05:57:25;91652.84;;;0.20;85.88
53041;BME280;39326;42.650;23.248;2024-01-16T05:59:51;91663.44;;;0.08;86.88
53041;BME280;39326;42.650;23.248;2024-01-16T06:02:17;91678.91;;;0.13;88.27
53041;BME280;39326;42.650;23.248;2024-01-16T06:04:42;91678.00;;;0.21;87.56
53041;BME280;39326;42.650;23.248;2024-01-16T06:07:08;91671.31;;;0.24;87.71
53041;BME280;39326;42.650;23.248;2024-01-16T06:09:38;91680.84;;;0.32;86.65
53041;BME280;39326;42.650;23.248;2024-01-16T06:12:05;91690.31;;;0.36;86.77
53041;BME280;39326;42.650;23.248;2024-01-16T06:14:32;91705.78;;;0.26;86.76
53041;BME280;39326;42.650;23.248;2024-01-16T06:16:58;91705.81;;;0.10;86.63
53041;BME280;39326;42.650;23.248;2024-01-16T06:19:23;91714.94;;;0.16;86.60
53041;BME280;39326;42.650;23.248;2024-01-16T06:21:49;91727.44;;;0.07;86.62
53041;BME280;39326;42.650;23.248;2024-01-16T06:24:14;91728.88;;;0.20;86.22
53041;BME280;39326;42.650;23.248;2024-01-16T06:26:40;91713.31;;;0.27;84.42
53041;BME280;39326;42.650;23.248;2024-01-16T06:29:05;91714.41;;;0.26;84.64
53041;BME280;39326;42.650;23.248;2024-01-16T06:31:31;91722.13;;;0.19;85.28
53041;BME280;39326;42.650;23.248;2024-01-16T06:33:57;91728.97;;;0.24;84.18
53041;BME280;39326;42.650;23.248;2024-01-16T06:36:22;91733.28;;;0.32;82.37
53041;BME280;39326;42.650;23.248;2024-01-16T06:38:48;91751.56;;;0.28;81.98
53041;BME280;39326;42.650;23.248;2024-01-16T06:41:13;91768.38;;;0.27;79.96
53041;BME280;39326;42.650;23.248;2024-01-16T06:43:39;91761.75;;;0.02;81.50
53041;BME280;39326;42.650;23.248;2024-01-16T06:46:04;91777.34;;;-0.18;80.91
53041;BME280;39326;42.650;23.248;2024-01-16T06:48:31;91776.19;;;-0.04;80.41
53041;BME280;39326;42.650;23.248;2024-01-16T06:50:56;91781.19;;;-0.15;77.71
53041;BME280;39326;42.650;23.248;2024-01-16T06:53:22;91782.97;;;-0.03;78.82
53041;BME280;39326;42.650;23.248;2024-01-16T06:55:48;91794.66;;;-0.01;77.06
53041;BME280;39326;42.650;23.248;2024-01-16T06:58:14;91800.56;;;-0.04;77.57
53041;BME280;39326;42.650;23.248;2024-01-16T07:00:39;91813.16;;;-0.09;76.27
53041;BME280;39326;42.650;23.248;2024-01-16T07:03:07;91805.69;;;-0.07;75.49
53041;BME280;39326;42.650;23.248;2024-01-16T07:05:32;91813.38;;;-0.14;76.13
53041;BME280;39326;42.650;23.248;2024-01-16T07:07:58;91822.53;;;-0.08;75.24
53041;BME280;39326;42.650;23.248;2024-01-16T07:10:24;91834.75;;;-0.12;75.50
53041;BME280;39326;42.650;23.248;2024-01-16T07:12:49;91837.34;;;-0.28;76.45
53041;BME280;39326;42.650;23.248;2024-01-16T07:15:17;91843.66;;;-0.29;76.26
53041;BME280;39326;42.650;23.248;2024-01-16T07:17:43;91860.81;;;-0.32;76.43
53041;BME280;39326;42.650;23.248;2024-01-16T07:20:09;91877.16;;;-0.23;76.75
53041;BME280;39326;42.650;23.248;2024-01-16T07:22:37;91869.69;;;-0.08;76.43
53041;BME280;39326;42.650;23.248;2024-01-16T07:25:02;91882.47;;;-0.19;77.40
53041;BME280;39326;42.650;23.248;2024-01-16T07:27:28;91880.25;;;-0.05;76.34
53041;BME280;39326;42.650;23.248;2024-01-16T07:29:54;91905.63;;;-0.09;77.87
53041;BME280;39326;42.650;23.248;2024-01-16T07:32:19;91897.94;;;-0.02;76.44
53041;BME280;39326;42.650;23.248;2024-01-16T07:34:45;91893.34;;;-0.05;75.35
53041;BME280;39326;42.650;23.248;2024-01-16T07:37:10;91907.47;;;-0.09;75.27
53041;BME280;39326;42.650;23.248;2024-01-16T07:39:36;91915.81;;;0.08;75.76
53041;BME280;39326;42.650;23.248;2024-01-16T07:42:01;91909.16;;;0.11;75.97
53041;BME280;39326;42.650;23.248;2024-01-16T07:44:27;91904.22;;;0.22;74.98
53041;BME280;39326;42.650;23.248;2024-01-16T07:46:52;91904.84;;;0.19;74.96
53041;BME280;39326;42.650;23.248;2024-01-16T07:49:18;91911.31;;;0.21;74.96
53041;BME280;39326;42.650;23.248;2024-01-16T07:51:44;91923.13;;;0.15;76.66
53041;BME280;39326;42.650;23.248;2024-01-16T07:54:10;91928.03;;;0.17;75.67
53041;BME280;39326;42.650;23.248;2024-01-16T07:56:36;91940.56;;;0.23;75.27
53041;BME280;39326;42.650;23.248;2024-01-16T07:59:03;91931.53;;;0.08;74.80
53041;BME280;39326;42.650;23.248;2024-01-16T08:01:28;91934.69;;;0.14;75.12
53041;BME280;39326;42.650;23.248;2024-01-16T08:03:55;91937.41;;;0.18;75.25
53041;BME280;39326;42.650;23.248;2024-01-16T08:06:21;91941.97;;;0.21;75.85
53041;BME280;39326;42.650;23.248;2024-01-16T08:08:47;91956.91;;;0.32;75.29
53041;BME280;39326;42.650;23.248;2024-01-16T08:11:13;91959.34;;;0.25;75.22
53041;BME280;39326;42.650;23.248;2024-01-16T08:13:38;91965.25;;;0.22;74.88
53041;BME280;39326;42.650;23.248;2024-01-16T08:16:04;91964.25;;;0.27;75.49
53041;BME280;39326;42.650;23.248;2024-01-16T08:18:30;91979.47;;;0.21;74.66
53041;BME280;39326;42.650;23.248;2024-01-16T08:20:57;91978.78;;;0.24;74.19
53041;BME280;39326;42.650;23.248;2024-01-16T08:23:22;91984.00;;;0.36;74.07
53041;BME280;39326;42.650;23.248;2024-01-16T08:25:48;91983.66;;;0.38;73.43
53041;BME280;39326;42.650;23.248;2024-01-16T08:28:14;91996.03;;;0.25;75.08
53041;BME280;39326;42.650;23.248;2024-01-16T08:30:40;92011.03;;;0.25;73.80
53041;BME280;39326;42.650;23.248;2024-01-16T08:33:06;92011.78;;;0.25;73.51
53041;BME280;39326;42.650;23.248;2024-01-16T08:35:32;92010.22;;;0.36;73.42
53041;BME280;39326;42.650;23.248;2024-01-16T08:37:58;92023.97;;;0.46;74.10
53041;BME280;39326;42.650;23.248;2024-01-16T08:40:24;92029.50;;;0.56;73.40
53041;BME280;39326;42.650;23.248;2024-01-16T08:42:49;92039.53;;;0.67;72.92
53041;BME280;39326;42.650;23.248;2024-01-16T08:45:20;92046.91;;;0.49;73.35
53041;BME280;39326;42.650;23.248;2024-01-16T08:47:46;92049.16;;;0.62;72.16
53041;BME280;39326;42.650;23.248;2024-01-16T08:50:12;92055.88;;;0.48;73.63
53041;BME280;39326;42.650;23.248;2024-01-16T08:52:37;92051.16;;;0.53;72.84
53041;BME280;39326;42.650;23.248;2024-01-16T08:55:03;92065.41;;;0.40;73.37
53041;BME280;39326;42.650;23.248;2024-01-16T08:57:29;92062.56;;;0.21;73.25
53041;BME280;39326;42.650;23.248;2024-01-16T08:59:55;92058.88;;;0.22;72.96
53041;BME280;39326;42.650;23.248;2024-01-16T09:02:21;92059.31;;;0.12;72.11
53041;BME280;39326;42.650;23.248;2024-01-16T09:04:47;92057.25;;;0.17;72.90
53041;BME280;39326;42.650;23.248;2024-01-16T09:07:16;92056.66;;;0.36;72.63
53041;BME280;39326;42.650;23.248;2024-01-16T09:09:42;92064.00;;;0.30;72.09
53041;BME280;39326;42.650;23.248;2024-01-16T09:12:09;92063.84;;;0.51;72.67
53041;BME280;39326;42.650;23.248;2024-01-16T09:14:34;92061.94;;;0.64;72.05
53041;BME280;39326;42.650;23.248;2024-01-16T09:17:00;92069.16;;;0.67;71.39
53041;BME280;39326;42.650;23.248;2024-01-16T09:19:25;92059.63;;;0.75;70.98
53041;BME280;39326;42.650;23.248;2024-01-16T09:21:51;92070.16;;;0.62;71.31
53041;BME280;39326;42.650;23.248;2024-01-16T09:24:17;92074.88;;;0.45;70.42
53041;BME280;39326;42.650;23.248;2024-01-16T09:26:44;92070.06;;;0.59;71.08
53041;BME280;39326;42.650;23.248;2024-01-16T09:29:10;92082.88;;;0.48;70.21
53041;BME280;39326;42.650;23.248;2024-01-16T09:31:35;92076.19;;;0.51;69.41
53041;BME280;39326;42.650;23.248;2024-01-16T09:34:03;92080.31;;;0.64;69.70
53041;BME280;39326;42.650;23.248;2024-01-16T09:36:29;92070.84;;;0.59;68.96
53041;BME280;39326;42.650;23.248;2024-01-16T09:38:54;92065.78;;;0.67;69.29
53041;BME280;39326;42.650;23.248;2024-01-16T09:41:20;92065.41;;;0.80;68.93
53041;BME280;39326;42.650;23.248;2024-01-16T09:43:47;92076.91;;;1.04;69.15
53041;BME280;39326;42.650;23.248;2024-01-16T09:46:15;92076.75;;;1.12;68.80
53041;BME280;39326;42.650;23.248;2024-01-16T09:48:41;92075.44;;;1.18;68.08
53041;BME280;39326;42.650;23.248;2024-01-16T09:51:10;92080.78;;;1.22;67.85
53041;BME280;39326;42.650;23.248;2024-01-16T09:53:40;92087.63;;;1.27;67.08
53041;BME280;39326;42.650;23.248;2024-01-16T09:56:12;92080.81;;;1.38;66.08
53041;BME280;39326;42.650;23.248;2024-01-16T09:58:40;92070.22;;;1.34;67.45
53041;BME280;39326;42.650;23.248;2024-01-16T10:01:06;92069.63;;;1.57;66.69
53041;BME280;39326;42.650;23.248;2024-01-16T10:03:34;92065.91;;;1.58;66.48
53041;BME280;39326;42.650;23.248;2024-01-16T10:06:06;92073.53;;;1.63;65.59
53041;BME280;39326;42.650;23.248;2024-01-16T10:08:32;92071.34;;;1.65;66.05
53041;BME280;39326;42.650;23.248;2024-01-16T10:10:59;92076.78;;;1.72;65.27
53041;BME280;39326;42.650;23.248;2024-01-16T10:13:26;92069.47;;;1.81;64.65
53041;BME280;39326;42.650;23.248;2024-01-16T10:15:52;92071.06;;;1.38;64.48
53041;BME280;39326;42.650;23.248;2024-01-16T10:18:28;92084.19;;;1.38;64.70
53041;BME280;39326;42.650;23.248;2024-01-16T10:20:55;92080.38;;;1.36;65.08
53041;BME280;39326;42.650;23.248;2024-01-16T10:23:26;92077.19;;;1.58;63.92
53041;BME280;39326;42.650;23.248;2024-01-16T10:26:11;92074.72;;;1.65;64.13
53041;BME280;39326;42.650;23.248;2024-01-16T10:28:41;92079.78;;;1.42;62.81
53041;BME280;39326;42.650;23.248;2024-01-16T10:31:08;92078.59;;;1.40;63.46
53041;BME280;39326;42.650;23.248;2024-01-16T10:33:34;92082.34;;;1.55;63.33
53041;BME280;39326;42.650;23.248;2024-01-16T10:36:09;92072.19;;;1.69;62.70
53041;BME280;39326;42.650;23.248;2024-01-16T10:38:35;92075.69;;;1.73;64.05
53041;BME280;39326;42.650;23.248;2024-01-16T10:41:08;92074.31;;;1.95;63.88
53041;BME280;39326;42.650;23.248;2024-01-16T10:43:34;92085.25;;;2.13;62.86
53041;BME280;39326;42.650;23.248;2024-01-16T10:48:39;92094.06;;;2.20;62.26
53041;BME280;39326;42.650;23.248;2024-01-16T10:51:10;92077.66;;;2.27;61.91
53041;BME280;39326;42.650;23.248;2024-01-16T10:53:37;92077.75;;;2.15;61.20
53041;BME280;39326;42.650;23.248;2024-01-16T10:56:10;92072.34;;;2.23;61.23
53041;BME280;39326;42.650;23.248;2024-01-16T10:58:36;92073.75;;;2.37;61.11
53041;BME280;39326;42.650;23.248;2024-01-16T11:01:05;92082.75;;;2.36;61.09
53041;BME280;39326;42.650;23.248;2024-01-16T11:03:46;92077.09;;;2.53;59.55
53041;BME280;39326;42.650;23.248;2024-01-16T11:06:15;92082.75;;;2.36;61.05
53041;BME280;39326;42.650;23.248;2024-01-16T11:08:41;92087.56;;;2.49;60.84
53041;BME280;39326;42.650;23.248;2024-01-16T11:11:08;92083.84;;;2.70;59.80
53041;BME280;39326;42.650;23.248;2024-01-16T11:13:34;92090.09;;;2.62;60.10
53041;BME280;39326;42.650;23.248;2024-01-16T11:16:02;92089.50;;;2.52;59.57
53041;BME280;39326;42.650;23.248;2024-01-16T11:18:30;92087.19;;;2.67;59.98
53041;BME280;39326;42.650;23.248;2024-01-16T11:20:56;92092.19;;;2.37;58.93
53041;BME280;39326;42.650;23.248;2024-01-16T11:23:22;92093.38;;;2.59;59.24
53041;BME280;39326;42.650;23.248;2024-01-16T11:25:48;92091.31;;;2.48;58.34
53041;BME280;39326;42.650;23.248;2024-01-16T11:28:14;92091.56;;;2.27;57.81
53041;BME280;39326;42.650;23.248;2024-01-16T11:30:41;92088.88;;;2.59;58.63
53041;BME280;39326;42.650;23.248;2024-01-16T11:35:56;92104.63;;;2.40;58.98
53041;BME280;39326;42.650;23.248;2024-01-16T11:38:21;92097.50;;;2.75;59.32
53041;BME280;39326;42.650;23.248;2024-01-16T11:40:47;92099.66;;;2.89;59.33
53041;BME280;39326;42.650;23.248;2024-01-16T11:45:57;92096.25;;;2.69;60.55
53041;BME280;39326;42.650;23.248;2024-01-16T11:48:24;92106.88;;;2.73;59.95
53041;BME280;39326;42.650;23.248;2024-01-16T11:50:50;92109.97;;;2.78;59.87
53041;BME280;39326;42.650;23.248;2024-01-16T11:53:32;92119.31;;;2.41;61.79
53041;BME280;39326;42.650;23.248;2024-01-16T11:56:28;92115.69;;;2.30;62.09
53041;BME280;39326;42.650;23.248;2024-01-16T12:01:30;92117.56;;;2.29;62.70
53041;BME280;39326;42.650;23.248;2024-01-16T12:04:04;92125.00;;;2.27;62.66
53041;BME280;39326;42.650;23.248;2024-01-16T12:06:30;92131.81;;;2.28;62.63
53041;BME280;39326;42.650;23.248;2024-01-16T12:09:13;92130.72;;;2.13;63.07
53041;BME280;39326;42.650;23.248;2024-01-16T12:11:40;92142.31;;;2.28;62.84
53041;BME280;39326;42.650;23.248;2024-01-16T12:14:05;92140.81;;;2.43;62.58
53041;BME280;39326;42.650;23.248;2024-01-16T12:16:30;92140.53;;;2.48;61.88
53041;BME280;39326;42.650;23.248;2024-01-16T12:21:33;92132.66;;;2.32;63.24
53041;BME280;39326;42.650;23.248;2024-01-16T12:23:59;92130.97;;;2.24;64.65
53041;BME280;39326;42.650;23.248;2024-01-16T12:26:25;92142.66;;;2.26;63.48
53041;BME280;39326;42.650;23.248;2024-01-16T12:28:53;92137.50;;;2.30;64.70
53041;BME280;39326;42.650;23.248;2024-01-16T12:31:19;92145.13;;;2.19;63.91
53041;BME280;39326;42.650;23.248;2024-01-16T12:33:44;92146.75;;;2.08;63.90
53041;BME280;39326;42.650;23.248;2024-01-16T12:36:10;92138.25;;;1.99;64.17
53041;BME280;39326;42.650;23.248;2024-01-16T12:38:36;92152.41;;;1.94;63.84
53041;BME280;39326;42.650;23.248;2024-01-16T12:41:02;92155.53;;;1.68;64.77
53041;BME280;39326;42.650;23.248;2024-01-16T12:43:32;92160.59;;;1.61;64.66
53041;BME280;39326;42.650;23.248;2024-01-16T12:45:58;92158.44;;;1.51;65.37
53041;BME280;39326;42.650;23.248;2024-01-16T12:48:25;92155.28;;;1.45;65.13
53041;BME280;39326;42.650;23.248;2024-01-16T12:50:51;92148.03;;;1.55;65.73
53041;BME280;39326;42.650;23.248;2024-01-16T12:53:16;92149.00;;;1.62;64.59
53041;BME280;39326;42.650;23.248;2024-01-16T12:55:44;92132.28;;;1.55;64.40
53041;BME280;39326;42.650;23.248;2024-01-16T12:58:20;92146.31;;;1.47;64.72
53041;BME280;39326;42.650;23.248;2024-01-16T13:00:49;92138.81;;;1.33;65.55
53041;BME280;39326;42.650;23.248;2024-01-16T13:03:20;92141.34;;;1.57;65.74
53041;BME280;39326;42.650;23.248;2024-01-16T13:05:53;92146.41;;;1.50;65.03
53041;BME280;39326;42.650;23.248;2024-01-16T13:08:19;92148.09;;;1.42;65.56
53041;BME280;39326;42.650;23.248;2024-01-16T13:10:46;92157.41;;;1.40;66.09